sensor_id;sensor_type;location;lat;lon;timestamp;temperature;humidity
7622;DHT22;3852;52.284;8.032;2022-08-21T00:00:13;16.30;99.90
7622;DHT22;3852;52.284;8.032;2022-08-21T00:02:49;16.30;99.90
7622;DHT22;3852;52.284;8.032;2022-08-21T00:05:20;16.20;99.90
7622;DHT22;3852;52.284;8.032;2022-08-21T00:07:46;16.30;99.90
7622;DHT22;3852;52.284;8.032;2022-08-21T00:10:12;16.30;99.90
7622;DHT22;3852;52.284;8.032;2022-08-21T00:12:39;16.30;99.90
7622;DHT22;3852;52.284;8.032;2022-08-21T00:15:08;16.30;99.90
7622;DHT22;3852;52.284;8.032;2022-08-21T00:17:37;16.40;99.90
7622;DHT22;3852;52.284;8.032;2022-08-21T00:20:06;16.40;99.90
7622;DHT22;3852;52.284;8.032;2022-08-21T00:22:34;16.50;99.90
7622;DHT22;3852;52.284;8.032;2022-08-21T00:25:02;16.50;99.90
7622;DHT22;3852;52.284;8.032;2022-08-21T00:27:29;16.60;99.90
7622;DHT22;3852;52.284;8.032;2022-08-21T00:29:54;16.60;99.90
7622;DHT22;3852;52.284;8.032;2022-08-21T00:32:22;16.70;99.90
7622;DHT22;3852;52.284;8.032;2022-08-21T00:34:49;16.70;99.90
7622;DHT22;3852;52.284;8.032;2022-08-21T00:37:15;16.70;99.90
7622;DHT22;3852;52.284;8.032;2022-08-21T00:39:41;16.80;99.90
7622;DHT22;3852;52.284;8.032;2022-08-21T00:42:07;16.80;99.90
7622;DHT22;3852;52.284;8.032;2022-08-21T00:44:33;16.80;99.90
7622;DHT22;3852;52.284;8.032;2022-08-21T00:46:59;16.80;99.90
7622;DHT22;3852;52.284;8.032;2022-08-21T00:49:24;16.80;99.90
7622;DHT22;3852;52.284;8.032;2022-08-21T00:51:55;16.80;99.90
7622;DHT22;3852;52.284;8.032;2022-08-21T00:54:25;16.80;99.90
7622;DHT22;3852;52.284;8.032;2022-08-21T00:56:55;16.80;99.90
7622;DHT22;3852;52.284;8.032;2022-08-21T00:59:23;16.80;99.90
7622;DHT22;3852;52.284;8.032;2022-08-21T01:01:51;16.70;99.90
7622;DHT22;3852;52.284;8.032;2022-08-21T01:04:18;16.80;99.90
7622;DHT22;3852;52.284;8.032;2022-08-21T01:06:44;16.80;99.90
7622;DHT22;3852;52.284;8.032;2022-08-21T01:09:13;16.80;99.90
7622;DHT22;3852;52.284;8.032;2022-08-21T01:11:40;16.80;99.90
7622;DHT22;3852;52.284;8.032;2022-08-21T01:14:09;16.80;99.90
7622;DHT22;3852;52.284;8.032;2022-08-21T01:16:38;16.80;99.90
7622;DHT22;3852;52.284;8.032;2022-08-21T01:19:07;16.80;99.90
7622;DHT22;3852;52.284;8.032;2022-08-21T01:21:34;16.80;99.90
7622;DHT22;3852;52.284;8.032;2022-08-21T01:24:00;16.80;99.90
7622;DHT22;3852;52.284;8.032;2022-08-21T01:26:30;16.80;99.90
7622;DHT22;3852;52.284;8.032;2022-08-21T01:28:57;16.80;99.90
7622;DHT22;3852;52.284;8.032;2022-08-21T01:31:39;16.80;99.90
7622;DHT22;3852;52.284;8.032;2022-08-21T01:34:06;16.70;99.90
7622;DHT22;3852;52.284;8.032;2022-08-21T01:36:32;16.70;99.90
7622;DHT22;3852;52.284;8.032;2022-08-21T01:38:59;16.70;99.90
7622;DHT22;3852;52.284;8.032;2022-08-21T01:41:25;16.70;99.90
7622;DHT22;3852;52.284;8.032;2022-08-21T01:43:51;16.70;99.90
7622;DHT22;3852;52.284;8.032;2022-08-21T01:46:17;16.70;99.90
7622;DHT22;3852;52.284;8.032;2022-08-21T01:48:43;16.80;99.90
7622;DHT22;3852;52.284;8.032;2022-08-21T01:51:12;16.80;99.90
7622;DHT22;3852;52.284;8.032;2022-08-21T01:53:38;16.80;99.90
7622;DHT22;3852;52.284;8.032;2022-08-21T01:56:06;16.80;99.90
7622;DHT22;3852;52.284;8.032;2022-08-21T01:58:33;16.80;99.90
7622;DHT22;3852;52.284;8.032;2022-08-21T02:01:00;16.80;99.90
7622;DHT22;3852;52.284;8.032;2022-08-21T02:03:28;16.70;99.90
7622;DHT22;3852;52.284;8.032;2022-08-21T02:05:54;16.70;99.90
7622;DHT22;3852;52.284;8.032;2022-08-21T02:08:21;16.70;99.90
7622;DHT22;3852;52.284;8.032;2022-08-21T02:10:51;16.70;99.90
7622;DHT22;3852;52.284;8.032;2022-08-21T02:13:18;16.60;99.90
7622;DHT22;3852;52.284;8.032;2022-08-21T02:15:43;16.60;99.90
7622;DHT22;3852;52.284;8.032;2022-08-21T02:18:09;16.60;99.90
7622;DHT22;3852;52.284;8.032;2022-08-21T02:20:39;16.60;99.90
7622;DHT22;3852;52.284;8.032;2022-08-21T02:23:08;16.60;99.90
7622;DHT22;3852;52.284;8.032;2022-08-21T02:25:36;16.50;99.90
7622;DHT22;3852;52.284;8.032;2022-08-21T02:28:05;16.60;99.90
7622;DHT22;3852;52.284;8.032;2022-08-21T02:30:36;16.50;99.90
7622;DHT22;3852;52.284;8.032;2022-08-21T02:33:05;16.50;99.90
7622;DHT22;3852;52.284;8.032;2022-08-21T02:35:31;16.50;99.90
7622;DHT22;3852;52.284;8.032;2022-08-21T02:38:00;16.50;99.90
7622;DHT22;3852;52.284;8.032;2022-08-21T02:40:33;16.50;99.90
7622;DHT22;3852;52.284;8.032;2022-08-21T02:43:01;16.50;99.90
7622;DHT22;3852;52.284;8.032;2022-08-21T02:45:28;16.50;99.90
7622;DHT22;3852;52.284;8.032;2022-08-21T02:47:57;16.40;99.90
7622;DHT22;3852;52.284;8.032;2022-08-21T02:50:36;16.50;99.90
7622;DHT22;3852;52.284;8.032;2022-08-21T02:53:06;16.50;99.90
7622;DHT22;3852;52.284;8.032;2022-08-21T02:55:34;16.40;99.90
7622;DHT22;3852;52.284;8.032;2022-08-21T02:58:02;16.40;99.90
7622;DHT22;3852;52.284;8.032;2022-08-21T03:00:31;16.40;99.90
7622;DHT22;3852;52.284;8.032;2022-08-21T03:02:59;16.40;99.90
7622;DHT22;3852;52.284;8.032;2022-08-21T03:05:26;16.40;99.90
7622;DHT22;3852;52.284;8.032;2022-08-21T03:07:53;16.40;99.90
7622;DHT22;3852;52.284;8.032;2022-08-21T03:10:21;16.30;99.90
7622;DHT22;3852;52.284;8.032;2022-08-21T03:12:48;16.30;99.90
7622;DHT22;3852;52.284;8.032;2022-08-21T03:15:17;16.40;99.90
7622;DHT22;3852;52.284;8.032;2022-08-21T03:17:44;16.40;99.90
7622;DHT22;3852;52.284;8.032;2022-08-21T03:20:19;16.30;99.90
7622;DHT22;3852;52.284;8.032;2022-08-21T03:22:48;16.40;99.90
7622;DHT22;3852;52.284;8.032;2022-08-21T03:25:13;16.30;99.90
7622;DHT22;3852;52.284;8.032;2022-08-21T03:27:39;16.30;99.90
7622;DHT22;3852;52.284;8.032;2022-08-21T03:30:07;16.20;99.90
7622;DHT22;3852;52.284;8.032;2022-08-21T03:32:33;16.20;99.90
7622;DHT22;3852;52.284;8.032;2022-08-21T03:35:00;16.20;99.90
7622;DHT22;3852;52.284;8.032;2022-08-21T03:37:27;16.10;99.90
7622;DHT22;3852;52.284;8.032;2022-08-21T03:39:53;16.10;99.90
7622;DHT22;3852;52.284;8.032;2022-08-21T03:42:19;16.00;99.90
7622;DHT22;3852;52.284;8.032;2022-08-21T03:44:45;15.90;99.90
7622;DHT22;3852;52.284;8.032;2022-08-21T03:47:11;15.90;99.90
7622;DHT22;3852;52.284;8.032;2022-08-21T03:49:37;15.80;99.90
7622;DHT22;3852;52.284;8.032;2022-08-21T03:52:03;15.80;99.90
7622;DHT22;3852;52.284;8.032;2022-08-21T03:54:29;15.80;99.90
7622;DHT22;3852;52.284;8.032;2022-08-21T03:56:55;15.70;99.90
7622;DHT22;3852;52.284;8.032;2022-08-21T03:59:21;15.70;99.90
7622;DHT22;3852;52.284;8.032;2022-08-21T04:01:55;15.70;99.90
7622;DHT22;3852;52.284;8.032;2022-08-21T04:04:23;15.60;99.90
7622;DHT22;3852;52.284;8.032;2022-08-21T04:06:49;15.50;99.90
7622;DHT22;3852;52.284;8.032;2022-08-21T04:09:16;15.50;99.90
7622;DHT22;3852;52.284;8.032;2022-08-21T04:11:42;15.40;99.90
7622;DHT22;3852;52.284;8.032;2022-08-21T04:14:08;15.40;99.90
7622;DHT22;3852;52.284;8.032;2022-08-21T04:16:34;15.40;99.90
7622;DHT22;3852;52.284;8.032;2022-08-21T04:19:00;15.30;99.90
7622;DHT22;3852;52.284;8.032;2022-08-21T04:21:26;15.40;99.90
7622;DHT22;3852;52.284;8.032;2022-08-21T04:23:54;15.30;99.90
7622;DHT22;3852;52.284;8.032;2022-08-21T04:26:20;15.30;99.90
7622;DHT22;3852;52.284;8.032;2022-08-21T04:28:46;15.30;99.90
7622;DHT22;3852;52.284;8.032;2022-08-21T04:31:12;15.30;99.90
7622;DHT22;3852;52.284;8.032;2022-08-21T04:33:38;15.20;99.90
7622;DHT22;3852;52.284;8.032;2022-08-21T04:36:05;15.20;99.90
7622;DHT22;3852;52.284;8.032;2022-08-21T04:38:34;15.20;99.90
7622;DHT22;3852;52.284;8.032;2022-08-21T04:40:59;15.20;99.90
7622;DHT22;3852;52.284;8.032;2022-08-21T04:43:25;15.20;99.90
7622;DHT22;3852;52.284;8.032;2022-08-21T04:45:52;15.20;99.90
7622;DHT22;3852;52.284;8.032;2022-08-21T04:48:21;15.20;99.90
7622;DHT22;3852;52.284;8.032;2022-08-21T04:50:54;15.20;99.90
7622;DHT22;3852;52.284;8.032;2022-08-21T04:56:25;15.20;99.90
7622;DHT22;3852;52.284;8.032;2022-08-21T04:58:56;15.30;99.90
7622;DHT22;3852;52.284;8.032;2022-08-21T05:01:24;15.30;99.90
7622;DHT22;3852;52.284;8.032;2022-08-21T05:03:54;15.30;99.90
7622;DHT22;3852;52.284;8.032;2022-08-21T05:06:22;15.30;99.90
7622;DHT22;3852;52.284;8.032;2022-08-21T05:08:50;15.30;99.90
7622;DHT22;3852;52.284;8.032;2022-08-21T05:11:18;15.40;99.90
7622;DHT22;3852;52.284;8.032;2022-08-21T05:13:44;15.40;99.90
7622;DHT22;3852;52.284;8.032;2022-08-21T05:16:16;15.40;99.90
7622;DHT22;3852;52.284;8.032;2022-08-21T05:18:42;15.40;99.90
7622;DHT22;3852;52.284;8.032;2022-08-21T05:21:08;15.60;99.90
7622;DHT22;3852;52.284;8.032;2022-08-21T05:23:35;15.70;99.90
7622;DHT22;3852;52.284;8.032;2022-08-21T05:26:02;15.80;99.90
7622;DHT22;3852;52.284;8.032;2022-08-21T05:28:30;15.80;99.90
7622;DHT22;3852;52.284;8.032;2022-08-21T05:30:57;15.80;99.90
7622;DHT22;3852;52.284;8.032;2022-08-21T05:33:23;16.00;99.90
7622;DHT22;3852;52.284;8.032;2022-08-21T05:35:53;16.00;99.90
7622;DHT22;3852;52.284;8.032;2022-08-21T05:38:22;16.00;99.90
7622;DHT22;3852;52.284;8.032;2022-08-21T05:40:48;16.00;99.90
7622;DHT22;3852;52.284;8.032;2022-08-21T05:43:15;16.10;99.90
7622;DHT22;3852;52.284;8.032;2022-08-21T05:45:41;16.20;99.90
7622;DHT22;3852;52.284;8.032;2022-08-21T05:48:09;16.20;99.90
7622;DHT22;3852;52.284;8.032;2022-08-21T05:50:44;16.40;99.90
7622;DHT22;3852;52.284;8.032;2022-08-21T05:53:12;16.70;99.90
7622;DHT22;3852;52.284;8.032;2022-08-21T05:55:39;16.80;99.90
7622;DHT22;3852;52.284;8.032;2022-08-21T05:58:06;16.80;99.90
7622;DHT22;3852;52.284;8.032;2022-08-21T06:00:31;17.00;99.90
7622;DHT22;3852;52.284;8.032;2022-08-21T06:02:58;17.10;99.90
7622;DHT22;3852;52.284;8.032;2022-08-21T06:05:24;17.20;99.90
7622;DHT22;3852;52.284;8.032;2022-08-21T06:07:53;17.40;99.90
7622;DHT22;3852;52.284;8.032;2022-08-21T06:10:19;17.40;99.90
7622;DHT22;3852;52.284;8.032;2022-08-21T06:12:45;17.70;99.90
7622;DHT22;3852;52.284;8.032;2022-08-21T06:15:11;17.80;99.90
7622;DHT22;3852;52.284;8.032;2022-08-21T06:17:37;17.90;99.90
7622;DHT22;3852;52.284;8.032;2022-08-21T06:20:03;17.80;99.90
7622;DHT22;3852;52.284;8.032;2022-08-21T06:22:30;17.80;99.90
7622;DHT22;3852;52.284;8.032;2022-08-21T06:24:56;17.90;99.90
7622;DHT22;3852;52.284;8.032;2022-08-21T06:27:21;17.90;99.90
7622;DHT22;3852;52.284;8.032;2022-08-21T06:29:47;18.00;99.90
7622;DHT22;3852;52.284;8.032;2022-08-21T06:32:13;18.10;99.90
7622;DHT22;3852;52.284;8.032;2022-08-21T06:34:40;18.10;99.90
7622;DHT22;3852;52.284;8.032;2022-08-21T06:37:07;18.20;99.90
7622;DHT22;3852;52.284;8.032;2022-08-21T06:39:33;18.30;99.90
7622;DHT22;3852;52.284;8.032;2022-08-21T06:42:00;18.40;99.90
7622;DHT22;3852;52.284;8.032;2022-08-21T06:44:26;18.40;99.90
7622;DHT22;3852;52.284;8.032;2022-08-21T06:46:52;18.60;99.90
7622;DHT22;3852;52.284;8.032;2022-08-21T06:49:18;18.70;99.90
7622;DHT22;3852;52.284;8.032;2022-08-21T06:51:43;18.90;99.90
7622;DHT22;3852;52.284;8.032;2022-08-21T06:54:09;19.00;99.90
7622;DHT22;3852;52.284;8.032;2022-08-21T06:56:35;19.00;99.90
7622;DHT22;3852;52.284;8.032;2022-08-21T06:59:04;19.10;99.90
7622;DHT22;3852;52.284;8.032;2022-08-21T07:01:31;19.10;99.90
7622;DHT22;3852;52.284;8.032;2022-08-21T07:03:58;19.10;99.90
7622;DHT22;3852;52.284;8.032;2022-08-21T07:06:24;19.10;99.90
7622;DHT22;3852;52.284;8.032;2022-08-21T07:08:50;19.10;99.90
7622;DHT22;3852;52.284;8.032;2022-08-21T07:11:22;19.20;99.90
7622;DHT22;3852;52.284;8.032;2022-08-21T07:13:51;19.30;99.90
7622;DHT22;3852;52.284;8.032;2022-08-21T07:16:19;19.40;99.90
7622;DHT22;3852;52.284;8.032;2022-08-21T07:18:46;19.50;99.90
7622;DHT22;3852;52.284;8.032;2022-08-21T07:21:12;19.60;99.90
7622;DHT22;3852;52.284;8.032;2022-08-21T07:23:41;19.70;99.90
7622;DHT22;3852;52.284;8.032;2022-08-21T07:26:08;19.80;99.90
7622;DHT22;3852;52.284;8.032;2022-08-21T07:28:34;19.90;99.90
7622;DHT22;3852;52.284;8.032;2022-08-21T07:31:01;19.90;99.90
7622;DHT22;3852;52.284;8.032;2022-08-21T07:33:29;20.00;99.90
7622;DHT22;3852;52.284;8.032;2022-08-21T07:35:56;20.00;99.90
7622;DHT22;3852;52.284;8.032;2022-08-21T07:38:23;20.10;99.90
7622;DHT22;3852;52.284;8.032;2022-08-21T07:40:51;20.20;99.90
7622;DHT22;3852;52.284;8.032;2022-08-21T07:43:18;20.30;99.90
7622;DHT22;3852;52.284;8.032;2022-08-21T07:45:44;20.30;99.90
7622;DHT22;3852;52.284;8.032;2022-08-21T07:48:11;20.30;99.90
7622;DHT22;3852;52.284;8.032;2022-08-21T07:50:37;20.30;99.90
7622;DHT22;3852;52.284;8.032;2022-08-21T07:53:04;20.50;99.90
7622;DHT22;3852;52.284;8.032;2022-08-21T07:55:30;20.50;99.90
7622;DHT22;3852;52.284;8.032;2022-08-21T07:57:55;20.60;99.90
7622;DHT22;3852;52.284;8.032;2022-08-21T08:00:24;20.60;99.90
7622;DHT22;3852;52.284;8.032;2022-08-21T08:02:52;20.60;99.90
7622;DHT22;3852;52.284;8.032;2022-08-21T08:05:24;20.60;99.90
7622;DHT22;3852;52.284;8.032;2022-08-21T08:07:52;20.70;99.90
7622;DHT22;3852;52.284;8.032;2022-08-21T08:10:18;20.80;99.90
7622;DHT22;3852;52.284;8.032;2022-08-21T08:12:45;20.80;99.90
7622;DHT22;3852;52.284;8.032;2022-08-21T08:15:14;20.80;99.90
7622;DHT22;3852;52.284;8.032;2022-08-21T08:17:42;20.90;99.90
7622;DHT22;3852;52.284;8.032;2022-08-21T08:20:10;20.90;99.90
7622;DHT22;3852;52.284;8.032;2022-08-21T08:22:38;21.00;99.90
7622;DHT22;3852;52.284;8.032;2022-08-21T08:25:06;21.10;99.90
7622;DHT22;3852;52.284;8.032;2022-08-21T08:27:33;21.20;99.90
7622;DHT22;3852;52.284;8.032;2022-08-21T08:29:59;21.20;99.90
7622;DHT22;3852;52.284;8.032;2022-08-21T08:32:25;21.20;99.90
7622;DHT22;3852;52.284;8.032;2022-08-21T08:34:51;21.30;99.90
7622;DHT22;3852;52.284;8.032;2022-08-21T08:37:19;21.30;99.90
7622;DHT22;3852;52.284;8.032;2022-08-21T08:39:46;21.40;99.90
7622;DHT22;3852;52.284;8.032;2022-08-21T08:42:20;21.50;99.90
7622;DHT22;3852;52.284;8.032;2022-08-21T08:44:57;21.60;99.90
7622;DHT22;3852;52.284;8.032;2022-08-21T08:47:25;21.50;99.90
7622;DHT22;3852;52.284;8.032;2022-08-21T08:50:01;21.40;99.90
7622;DHT22;3852;52.284;8.032;2022-08-21T08:52:30;21.40;99.90
7622;DHT22;3852;52.284;8.032;2022-08-21T08:55:11;21.30;99.90
7622;DHT22;3852;52.284;8.032;2022-08-21T08:57:44;21.30;99.90
7622;DHT22;3852;52.284;8.032;2022-08-21T09:00:13;21.50;99.90
7622;DHT22;3852;52.284;8.032;2022-08-21T09:02:42;21.50;99.90
7622;DHT22;3852;52.284;8.032;2022-08-21T09:05:26;21.50;99.90
7622;DHT22;3852;52.284;8.032;2022-08-21T09:08:31;21.70;99.90
7622;DHT22;3852;52.284;8.032;2022-08-21T09:20:31;22.00;99.90
7622;DHT22;3852;52.284;8.032;2022-08-21T09:23:13;21.90;99.90
7622;DHT22;3852;52.284;8.032;2022-08-21T09:26:11;22.20;99.90
7622;DHT22;3852;52.284;8.032;2022-08-21T09:28:42;22.30;99.90
7622;DHT22;3852;52.284;8.032;2022-08-21T09:31:25;22.50;99.90
7622;DHT22;3852;52.284;8.032;2022-08-21T09:34:03;22.50;99.90
7622;DHT22;3852;52.284;8.032;2022-08-21T09:36:44;22.30;99.90
7622;DHT22;3852;52.284;8.032;2022-08-21T09:39:23;22.20;99.90
7622;DHT22;3852;52.284;8.032;2022-08-21T09:44:27;22.10;99.90
7622;DHT22;3852;52.284;8.032;2022-08-21T09:46:56;22.00;99.90
7622;DHT22;3852;52.284;8.032;2022-08-21T09:49:48;22.10;99.90
7622;DHT22;3852;52.284;8.032;2022-08-21T09:52:20;22.50;99.90
7622;DHT22;3852;52.284;8.032;2022-08-21T09:54:51;22.60;99.90
7622;DHT22;3852;52.284;8.032;2022-08-21T09:57:27;22.50;99.90
7622;DHT22;3852;52.284;8.032;2022-08-21T10:02:45;22.90;99.90
7622;DHT22;3852;52.284;8.032;2022-08-21T10:05:26;23.00;99.90
7622;DHT22;3852;52.284;8.032;2022-08-21T10:07:52;23.30;99.90
7622;DHT22;3852;52.284;8.032;2022-08-21T10:10:22;23.10;99.90
7622;DHT22;3852;52.284;8.032;2022-08-21T10:13:16;23.20;99.90
7622;DHT22;3852;52.284;8.032;2022-08-21T10:18:48;23.40;99.90
7622;DHT22;3852;52.284;8.032;2022-08-21T10:21:30;23.50;99.90
7622;DHT22;3852;52.284;8.032;2022-08-21T10:24:21;23.80;99.90
7622;DHT22;3852;52.284;8.032;2022-08-21T10:27:16;23.80;99.90
7622;DHT22;3852;52.284;8.032;2022-08-21T10:30:24;23.20;99.90
7622;DHT22;3852;52.284;8.032;2022-08-21T10:32:56;23.20;99.90
7622;DHT22;3852;52.284;8.032;2022-08-21T10:35:29;23.30;99.90
7622;DHT22;3852;52.284;8.032;2022-08-21T10:40:49;23.70;99.90
7622;DHT22;3852;52.284;8.032;2022-08-21T10:43:29;23.40;99.90
7622;DHT22;3852;52.284;8.032;2022-08-21T10:46:52;23.20;99.90
7622;DHT22;3852;52.284;8.032;2022-08-21T10:55:26;23.60;99.90
7622;DHT22;3852;52.284;8.032;2022-08-21T10:58:06;23.80;99.90
7622;DHT22;3852;52.284;8.032;2022-08-21T11:00:46;23.60;99.90
7622;DHT22;3852;52.284;8.032;2022-08-21T11:06:47;23.90;99.90
7622;DHT22;3852;52.284;8.032;2022-08-21T11:09:24;24.20;99.90
7622;DHT22;3852;52.284;8.032;2022-08-21T11:12:12;24.10;99.90
7622;DHT22;3852;52.284;8.032;2022-08-21T11:14:57;24.30;99.90
7622;DHT22;3852;52.284;8.032;2022-08-21T11:17:52;24.60;99.90
7622;DHT22;3852;52.284;8.032;2022-08-21T11:20:40;24.60;99.90
7622;DHT22;3852;52.284;8.032;2022-08-21T11:23:15;24.40;99.90
7622;DHT22;3852;52.284;8.032;2022-08-21T11:25:51;24.10;99.90
7622;DHT22;3852;52.284;8.032;2022-08-21T11:28:54;24.30;99.90
7622;DHT22;3852;52.284;8.032;2022-08-21T11:34:47;24.90;99.90
7622;DHT22;3852;52.284;8.032;2022-08-21T11:58:11;25.40;99.90
7622;DHT22;3852;52.284;8.032;2022-08-21T12:00:50;25.20;99.90
7622;DHT22;3852;52.284;8.032;2022-08-21T12:03:52;25.10;99.90
7622;DHT22;3852;52.284;8.032;2022-08-21T12:06:33;25.20;99.90
7622;DHT22;3852;52.284;8.032;2022-08-21T12:09:07;24.90;99.90
7622;DHT22;3852;52.284;8.032;2022-08-21T12:11:47;25.10;99.90
7622;DHT22;3852;52.284;8.032;2022-08-21T12:14:17;25.10;99.90
7622;DHT22;3852;52.284;8.032;2022-08-21T12:16:48;25.10;99.90
7622;DHT22;3852;52.284;8.032;2022-08-21T12:27:40;25.20;99.90
7622;DHT22;3852;52.284;8.032;2022-08-21T12:33:04;25.40;99.90
7622;DHT22;3852;52.284;8.032;2022-08-21T12:35:52;25.50;99.90
7622;DHT22;3852;52.284;8.032;2022-08-21T12:38:32;25.40;99.90
7622;DHT22;3852;52.284;8.032;2022-08-21T12:41:06;25.40;99.90
7622;DHT22;3852;52.284;8.032;2022-08-21T12:43:43;25.30;99.90
7622;DHT22;3852;52.284;8.032;2022-08-21T12:46:37;25.40;99.90
7622;DHT22;3852;52.284;8.032;2022-08-21T12:49:16;25.10;99.90
7622;DHT22;3852;52.284;8.032;2022-08-21T12:51:56;25.00;99.90
7622;DHT22;3852;52.284;8.032;2022-08-21T12:54:32;25.10;99.90
7622;DHT22;3852;52.284;8.032;2022-08-21T12:57:06;25.20;99.90
7622;DHT22;3852;52.284;8.032;2022-08-21T12:59:36;25.40;99.90
7622;DHT22;3852;52.284;8.032;2022-08-21T13:02:08;25.40;99.90
7622;DHT22;3852;52.284;8.032;2022-08-21T13:04:49;25.40;99.90
7622;DHT22;3852;52.284;8.032;2022-08-21T13:07:22;25.30;99.90
7622;DHT22;3852;52.284;8.032;2022-08-21T13:10:00;25.50;99.90
7622;DHT22;3852;52.284;8.032;2022-08-21T13:12:31;25.60;99.90
7622;DHT22;3852;52.284;8.032;2022-08-21T13:15:02;25.60;99.90
7622;DHT22;3852;52.284;8.032;2022-08-21T13:17:34;25.60;99.90
7622;DHT22;3852;52.284;8.032;2022-08-21T13:20:06;25.70;99.90
7622;DHT22;3852;52.284;8.032;2022-08-21T13:22:51;25.70;99.90
7622;DHT22;3852;52.284;8.032;2022-08-21T13:25:19;25.60;99.90
7622;DHT22;3852;52.284;8.032;2022-08-21T13:28:08;25.60;99.90
7622;DHT22;3852;52.284;8.032;2022-08-21T13:30:49;25.60;99.90
7622;DHT22;3852;52.284;8.032;2022-08-21T13:33:19;25.50;99.90
7622;DHT22;3852;52.284;8.032;2022-08-21T13:38:20;25.40;99.90
7622;DHT22;3852;52.284;8.032;2022-08-21T13:41:02;25.10;99.90
7622;DHT22;3852;52.284;8.032;2022-08-21T13:43:49;24.90;99.90
7622;DHT22;3852;52.284;8.032;2022-08-21T13:46:24;25.00;99.90
7622;DHT22;3852;52.284;8.032;2022-08-21T13:48:53;25.10;99.90
7622;DHT22;3852;52.284;8.032;2022-08-21T13:51:20;25.20;99.90
7622;DHT22;3852;52.284;8.032;2022-08-21T13:53:49;25.30;99.90
7622;DHT22;3852;52.284;8.032;2022-08-21T13:56:42;25.30;99.90
7622;DHT22;3852;52.284;8.032;2022-08-21T13:59:09;25.30;99.90
7622;DHT22;3852;52.284;8.032;2022-08-21T14:01:49;25.40;99.90
7622;DHT22;3852;52.284;8.032;2022-08-21T14:04:33;25.40;99.90
7622;DHT22;3852;52.284;8.032;2022-08-21T14:07:02;25.30;99.90
7622;DHT22;3852;52.284;8.032;2022-08-21T14:09:32;25.30;99.90
7622;DHT22;3852;52.284;8.032;2022-08-21T14:12:10;25.10;99.90
7622;DHT22;3852;52.284;8.032;2022-08-21T14:14:39;25.10;99.90
7622;DHT22;3852;52.284;8.032;2022-08-21T14:17:10;25.30;99.90
7622;DHT22;3852;52.284;8.032;2022-08-21T14:19:41;25.50;99.90
7622;DHT22;3852;52.284;8.032;2022-08-21T14:22:32;25.60;99.90
7622;DHT22;3852;52.284;8.032;2022-08-21T14:27:38;25.50;99.90
7622;DHT22;3852;52.284;8.032;2022-08-21T14:30:31;25.40;99.90
7622;DHT22;3852;52.284;8.032;2022-08-21T14:32:59;25.30;99.90
7622;DHT22;3852;52.284;8.032;2022-08-21T14:35:26;25.30;99.90
7622;DHT22;3852;52.284;8.032;2022-08-21T14:37:52;25.30;99.90
7622;DHT22;3852;52.284;8.032;2022-08-21T14:40:21;25.30;99.90
7622;DHT22;3852;52.284;8.032;2022-08-21T14:42:49;25.30;99.90
7622;DHT22;3852;52.284;8.032;2022-08-21T14:45:16;25.30;99.90
7622;DHT22;3852;52.284;8.032;2022-08-21T14:47:48;25.40;99.90
7622;DHT22;3852;52.284;8.032;2022-08-21T14:50:15;25.50;99.90
7622;DHT22;3852;52.284;8.032;2022-08-21T14:52:41;25.40;99.90
7622;DHT22;3852;52.284;8.032;2022-08-21T14:55:08;25.30;99.90
7622;DHT22;3852;52.284;8.032;2022-08-21T14:57:40;25.30;99.90
7622;DHT22;3852;52.284;8.032;2022-08-21T15:00:13;25.40;99.90
7622;DHT22;3852;52.284;8.032;2022-08-21T15:02:42;25.50;99.90
7622;DHT22;3852;52.284;8.032;2022-08-21T15:05:09;25.40;99.90
7622;DHT22;3852;52.284;8.032;2022-08-21T15:07:35;25.40;99.90
7622;DHT22;3852;52.284;8.032;2022-08-21T15:10:01;25.30;99.90
7622;DHT22;3852;52.284;8.032;2022-08-21T15:12:27;25.30;99.90
7622;DHT22;3852;52.284;8.032;2022-08-21T15:14:53;25.40;99.90
7622;DHT22;3852;52.284;8.032;2022-08-21T15:17:19;25.40;99.90
7622;DHT22;3852;52.284;8.032;2022-08-21T15:19:45;25.50;99.90
7622;DHT22;3852;52.284;8.032;2022-08-21T15:22:13;25.50;99.90
7622;DHT22;3852;52.284;8.032;2022-08-21T15:24:39;25.40;99.90
7622;DHT22;3852;52.284;8.032;2022-08-21T15:27:07;25.30;99.90
7622;DHT22;3852;52.284;8.032;2022-08-21T15:29:34;25.30;99.90
7622;DHT22;3852;52.284;8.032;2022-08-21T15:32:15;25.50;99.90
7622;DHT22;3852;52.284;8.032;2022-08-21T15:34:42;25.80;99.90
7622;DHT22;3852;52.284;8.032;2022-08-21T15:37:08;26.10;99.90
7622;DHT22;3852;52.284;8.032;2022-08-21T15:39:35;26.10;99.90
7622;DHT22;3852;52.284;8.032;2022-08-21T15:42:02;26.00;99.90
7622;DHT22;3852;52.284;8.032;2022-08-21T15:44:28;25.60;99.90
7622;DHT22;3852;52.284;8.032;2022-08-21T15:46:55;25.50;99.90
7622;DHT22;3852;52.284;8.032;2022-08-21T15:49:22;25.30;99.90
7622;DHT22;3852;52.284;8.032;2022-08-21T15:51:48;25.30;99.90
7622;DHT22;3852;52.284;8.032;2022-08-21T15:54:14;25.20;99.90
7622;DHT22;3852;52.284;8.032;2022-08-21T15:56:40;25.10;99.90
7622;DHT22;3852;52.284;8.032;2022-08-21T15:59:19;25.10;99.90
7622;DHT22;3852;52.284;8.032;2022-08-21T16:01:51;25.10;99.90
7622;DHT22;3852;52.284;8.032;2022-08-21T16:04:27;24.90;99.90
7622;DHT22;3852;52.284;8.032;2022-08-21T16:06:54;24.90;99.90
7622;DHT22;3852;52.284;8.032;2022-08-21T16:09:20;24.80;99.90
7622;DHT22;3852;52.284;8.032;2022-08-21T16:11:46;24.80;99.90
7622;DHT22;3852;52.284;8.032;2022-08-21T16:14:14;24.70;99.90
7622;DHT22;3852;52.284;8.032;2022-08-21T16:16:41;24.70;99.90
7622;DHT22;3852;52.284;8.032;2022-08-21T16:19:07;24.70;99.90
7622;DHT22;3852;52.284;8.032;2022-08-21T16:21:34;24.70;99.90
7622;DHT22;3852;52.284;8.032;2022-08-21T16:24:00;24.70;99.90
7622;DHT22;3852;52.284;8.032;2022-08-21T16:26:27;24.60;99.90
7622;DHT22;3852;52.284;8.032;2022-08-21T16:28:55;24.60;99.90
7622;DHT22;3852;52.284;8.032;2022-08-21T16:31:23;24.50;99.90
7622;DHT22;3852;52.284;8.032;2022-08-21T16:33:52;24.30;99.90
7622;DHT22;3852;52.284;8.032;2022-08-21T16:36:19;24.10;99.90
7622;DHT22;3852;52.284;8.032;2022-08-21T16:38:45;24.10;99.90
7622;DHT22;3852;52.284;8.032;2022-08-21T16:41:15;24.10;99.90
7622;DHT22;3852;52.284;8.032;2022-08-21T16:43:44;23.90;99.90
7622;DHT22;3852;52.284;8.032;2022-08-21T16:46:12;23.80;99.90
7622;DHT22;3852;52.284;8.032;2022-08-21T16:48:39;24.00;99.90
7622;DHT22;3852;52.284;8.032;2022-08-21T16:51:06;24.00;99.90
7622;DHT22;3852;52.284;8.032;2022-08-21T16:53:32;24.00;99.90
7622;DHT22;3852;52.284;8.032;2022-08-21T16:55:59;24.10;99.90
7622;DHT22;3852;52.284;8.032;2022-08-21T16:58:32;24.10;99.90
7622;DHT22;3852;52.284;8.032;2022-08-21T17:00:59;24.20;99.90
7622;DHT22;3852;52.284;8.032;2022-08-21T17:03:31;24.20;99.90
7622;DHT22;3852;52.284;8.032;2022-08-21T17:06:00;24.20;99.90
7622;DHT22;3852;52.284;8.032;2022-08-21T17:08:26;24.20;99.90
7622;DHT22;3852;52.284;8.032;2022-08-21T17:10:54;24.10;99.90
7622;DHT22;3852;52.284;8.032;2022-08-21T17:13:20;24.10;99.90
7622;DHT22;3852;52.284;8.032;2022-08-21T17:15:46;24.10;99.90
7622;DHT22;3852;52.284;8.032;2022-08-21T17:18:15;24.10;99.90
7622;DHT22;3852;52.284;8.032;2022-08-21T17:20:42;24.10;99.90
7622;DHT22;3852;52.284;8.032;2022-08-21T17:23:08;24.00;99.90
7622;DHT22;3852;52.284;8.032;2022-08-21T17:25:37;24.00;99.90
7622;DHT22;3852;52.284;8.032;2022-08-21T17:28:07;23.90;99.90
7622;DHT22;3852;52.284;8.032;2022-08-21T17:30:37;23.90;99.90
7622;DHT22;3852;52.284;8.032;2022-08-21T17:33:07;23.80;99.90
7622;DHT22;3852;52.284;8.032;2022-08-21T17:35:33;23.70;99.90